Time;durP1;ratioP1;P1;durP2;ratioP2;P2;SDS_P1;SDS_P2;PMS_P1;PMS_P2;Temp;Humidity;BMP_temperature;BMP_pressure;BME280_temperature;BME280_humidity;BME280_pressure;Samples;Min_cycle;Max_cycle;Signal;HPM_P1;HPM_P2
2022/10/30 00:00:23;;;;;;;;;;;13.50;99.90;;;;;;5064869;28;19932;-67
2022/10/30 00:02:49;;;;;;;;;;;13.50;99.90;;;;;;5052725;28;20406;-67
2022/10/30 00:05:14;;;;;;;;;;;13.50;99.90;;;;;;5066444;28;20041;-67
2022/10/30 00:07:40;;;;;;;;;;;13.50;99.90;;;;;;5099073;28;19965;-67
2022/10/30 00:10:06;;;;;;;;;;;13.50;99.90;;;;;;5067187;28;20125;-67
2022/10/30 00:12:31;;;;;;;;;;;13.50;99.90;;;;;;5096099;28;19994;-67
2022/10/30 00:14:57;;;;;;;;;;;13.40;99.90;;;;;;5048290;28;20513;-67
2022/10/30 00:17:22;;;;;;;;;;;13.50;99.90;;;;;;5066575;28;20528;-67
2022/10/30 00:19:47;;;;;;;;;;;13.50;99.90;;;;;;5068953;28;19928;-67
2022/10/30 00:22:13;;;;;;;;;;;13.50;99.90;;;;;;5073155;28;20086;-67
2022/10/30 00:24:38;;;;;;;;;;;13.50;99.90;;;;;;5072308;28;20007;-67
2022/10/30 00:27:04;;;;;;;;;;;13.50;99.90;;;;;;5062683;28;20030;-67
2022/10/30 00:29:30;;;;;;;;;;;13.50;99.90;;;;;;5058770;28;20585;-67
2022/10/30 00:31:55;;;;;;;;;;;13.60;99.90;;;;;;5065110;28;19920;-67
2022/10/30 00:34:20;;;;;;;;;;;13.50;99.90;;;;;;5073317;28;19920;-67
2022/10/30 00:36:46;;;;;;;;;;;13.60;99.90;;;;;;5066937;28;19936;-67
2022/10/30 00:39:11;;;;;;;;;;;13.60;99.90;;;;;;5066562;28;19989;-67
2022/10/30 00:41:40;;;;;;;;;;;13.50;99.90;;;;;;5073401;28;19928;-67
2022/10/30 00:44:25;;;;;;;;;;;13.50;99.90;;;;;;5068283;28;19924;-67
2022/10/30 00:46:50;;;;;;;;;;;13.50;99.90;;;;;;5065719;28;19920;-67
2022/10/30 00:49:16;;;;;;;;;;;13.60;99.90;;;;;;5106235;27;19920;-67
2022/10/30 00:51:46;;;;;;;;;;;13.50;99.90;;;;;;5071277;28;19925;-67
2022/10/30 00:54:13;;;;;;;;;;;13.50;99.90;;;;;;5074799;28;19928;-67
2022/10/30 00:56:39;;;;;;;;;;;13.50;99.90;;;;;;5068278;28;20010;-67
2022/10/30 00:59:06;;;;;;;;;;;13.50;99.90;;;;;;5067379;28;20015;-67
2022/10/30 01:01:34;;;;;;;;;;;13.50;99.90;;;;;;5090919;27;19971;-67
2022/10/30 01:04:01;;;;;;;;;;;13.60;99.90;;;;;;5068427;28;20031;-67
2022/10/30 01:06:27;;;;;;;;;;;13.60;99.90;;;;;;5067560;28;20394;-67
2022/10/30 01:08:54;;;;;;;;;;;13.60;99.90;;;;;;5079790;28;20428;-67
2022/10/30 01:11:19;;;;;;;;;;;13.60;99.90;;;;;;5071947;28;20011;-66
2022/10/30 01:13:47;;;;;;;;;;;13.70;99.90;;;;;;5075932;28;20014;-67
2022/10/30 01:16:20;;;;;;;;;;;13.60;99.90;;;;;;5069974;28;20364;-67
2022/10/30 01:18:48;;;;;;;;;;;13.70;99.90;;;;;;5068204;28;20332;-66
2022/10/30 01:21:30;;;;;;;;;;;13.60;99.90;;;;;;5095705;27;19977;-67
2022/10/30 01:24:15;;;;;;;;;;;13.60;99.90;;;;;;5101694;27;20474;-67
2022/10/30 01:26:56;;;;;;;;;;;13.60;99.90;;;;;;5075894;28;19921;-67
2022/10/30 01:29:27;;;;;;;;;;;13.70;99.90;;;;;;5071021;28;19928;-67
2022/10/30 01:32:25;;;;;;;;;;;13.60;99.90;;;;;;5067801;28;20000;-67
2022/10/30 01:34:57;;;;;;;;;;;13.60;99.90;;;;;;5024348;28;19921;-67
2022/10/30 01:37:35;;;;;;;;;;;13.60;99.90;;;;;;5061355;28;19978;-67
2022/10/30 01:40:14;;;;;;;;;;;13.70;99.90;;;;;;5101605;27;20015;-67
2022/10/30 01:42:44;;;;;;;;;;;13.60;99.90;;;;;;5072771;28;19924;-67
2022/10/30 01:45:18;;;;;;;;;;;13.60;99.90;;;;;;5069647;28;20412;-67
2022/10/30 01:47:59;;;;;;;;;;;13.60;99.90;;;;;;5067476;28;20362;-67
2022/10/30 01:50:25;;;;;;;;;;;13.60;99.90;;;;;;5093842;27;20018;-67
2022/10/30 01:52:56;;;;;;;;;;;13.60;99.90;;;;;;5067780;28;20050;-67
2022/10/30 01:55:30;;;;;;;;;;;13.50;99.90;;;;;;5077296;28;20383;-67
2022/10/30 01:57:56;;;;;;;;;;;13.50;99.90;;;;;;5101127;27;20379;-67
2022/10/30 02:00:21;;;;;;;;;;;13.50;99.90;;;;;;5068323;28;19928;-67
2022/10/30 02:02:48;;;;;;;;;;;13.50;99.90;;;;;;5073292;28;19974;-67
2022/10/30 02:05:19;;;;;;;;;;;13.40;99.90;;;;;;5078380;28;20371;-67
2022/10/30 02:07:44;;;;;;;;;;;13.30;99.90;;;;;;5066958;28;19927;-67
2022/10/30 02:10:10;;;;;;;;;;;13.40;99.90;;;;;;5074122;28;20293;-67
2022/10/30 02:12:36;;;;;;;;;;;13.30;99.90;;;;;;5069031;28;19925;-67
2022/10/30 02:15:02;;;;;;;;;;;13.30;99.90;;;;;;5073857;28;19920;-67
2022/10/30 02:17:27;;;;;;;;;;;13.30;99.90;;;;;;5071878;28;19928;-67
2022/10/30 02:19:53;;;;;;;;;;;13.30;99.90;;;;;;5077475;28;19971;-67
2022/10/30 02:22:18;;;;;;;;;;;13.30;99.90;;;;;;5063400;28;19972;-67
2022/10/30 02:24:44;;;;;;;;;;;13.30;99.90;;;;;;5079794;28;19973;-67
2022/10/30 02:27:09;;;;;;;;;;;13.20;99.90;;;;;;5073385;28;20316;-67
2022/10/30 02:29:35;;;;;;;;;;;13.30;99.90;;;;;;5072694;28;19940;-67
2022/10/30 02:32:00;;;;;;;;;;;13.30;99.90;;;;;;5100944;27;19920;-67
2022/10/30 02:34:26;;;;;;;;;;;13.20;99.90;;;;;;5065661;28;20002;-67
2022/10/30 02:36:51;;;;;;;;;;;13.20;99.90;;;;;;5066600;28;19960;-68
2022/10/30 02:39:18;;;;;;;;;;;13.30;99.90;;;;;;5071684;28;19979;-67
2022/10/30 02:41:44;;;;;;;;;;;13.20;99.90;;;;;;5099779;28;19927;-67
2022/10/30 02:44:09;;;;;;;;;;;13.20;99.90;;;;;;5074243;28;19921;-67
2022/10/30 02:46:35;;;;;;;;;;;13.10;99.90;;;;;;5067182;28;19921;-67
2022/10/30 02:49:01;;;;;;;;;;;13.10;99.90;;;;;;5069044;28;20009;-67
2022/10/30 02:51:27;;;;;;;;;;;13.20;99.90;;;;;;5071553;28;19929;-67
2022/10/30 02:53:52;;;;;;;;;;;13.10;99.90;;;;;;5099270;27;19924;-67
2022/10/30 02:56:18;;;;;;;;;;;13.10;99.90;;;;;;5060029;28;20300;-67
2022/10/30 02:58:43;;;;;;;;;;;13.00;99.90;;;;;;5070837;28;19924;-67
2022/10/30 03:01:10;;;;;;;;;;;13.10;99.90;;;;;;5076162;28;19928;-67
2022/10/30 03:03:35;;;;;;;;;;;13.00;99.90;;;;;;5097862;27;20051;-67
2022/10/30 03:06:02;;;;;;;;;;;13.00;99.90;;;;;;5074200;28;20019;-67
2022/10/30 03:08:28;;;;;;;;;;;12.90;99.90;;;;;;5070644;28;20017;-67
2022/10/30 03:11:00;;;;;;;;;;;12.90;99.90;;;;;;5065714;28;19920;-67
2022/10/30 03:13:26;;;;;;;;;;;12.80;99.90;;;;;;5067170;28;19925;-67
2022/10/30 03:15:52;;;;;;;;;;;12.80;99.90;;;;;;5075811;28;19989;-67
2022/10/30 03:18:17;;;;;;;;;;;12.80;99.90;;;;;;5067603;28;19975;-67
2022/10/30 03:20:43;;;;;;;;;;;12.70;99.90;;;;;;5085061;28;19920;-67
2022/10/30 03:23:08;;;;;;;;;;;12.70;99.90;;;;;;5067979;28;19978;-67
2022/10/30 03:25:33;;;;;;;;;;;12.80;99.90;;;;;;5069270;28;20379;-67
2022/10/30 03:27:59;;;;;;;;;;;12.70;99.90;;;;;;5066809;28;19978;-67
2022/10/30 03:30:24;;;;;;;;;;;12.70;99.90;;;;;;5065500;28;19921;-67
2022/10/30 03:32:50;;;;;;;;;;;12.70;99.90;;;;;;5060444;28;20335;-67
2022/10/30 03:35:15;;;;;;;;;;;12.70;99.90;;;;;;5095745;28;19920;-67
2022/10/30 03:37:41;;;;;;;;;;;12.60;99.90;;;;;;5072493;28;19982;-67
2022/10/30 03:40:06;;;;;;;;;;;12.60;99.90;;;;;;5078225;28;19924;-67
2022/10/30 03:42:32;;;;;;;;;;;12.60;99.90;;;;;;5090218;28;19962;-67
2022/10/30 03:44:57;;;;;;;;;;;12.50;99.90;;;;;;5077367;28;19928;-67
2022/10/30 03:47:23;;;;;;;;;;;12.50;99.90;;;;;;5071781;28;19928;-68
2022/10/30 03:49:48;;;;;;;;;;;12.50;99.90;;;;;;5075957;28;19930;-68
2022/10/30 03:52:14;;;;;;;;;;;12.50;99.90;;;;;;5074108;28;19929;-67
2022/10/30 03:54:39;;;;;;;;;;;12.40;99.90;;;;;;5073899;28;19924;-67
2022/10/30 03:57:05;;;;;;;;;;;12.40;99.90;;;;;;5068144;28;19924;-67
2022/10/30 03:59:30;;;;;;;;;;;12.40;99.90;;;;;;5098935;27;19927;-67
2022/10/30 04:01:56;;;;;;;;;;;12.40;99.90;;;;;;5064239;28;19921;-67
2022/10/30 04:04:21;;;;;;;;;;;12.30;99.90;;;;;;5053547;28;19921;-67
2022/10/30 04:06:47;;;;;;;;;;;12.30;99.90;;;;;;5071450;28;20015;-67
2022/10/30 04:09:12;;;;;;;;;;;12.40;99.90;;;;;;5074164;28;20409;-67
2022/10/30 04:11:37;;;;;;;;;;;12.30;99.90;;;;;;5068596;28;19935;-67
2022/10/30 04:14:03;;;;;;;;;;;12.30;99.90;;;;;;5070720;28;21756;-67
2022/10/30 04:16:28;;;;;;;;;;;12.30;99.90;;;;;;5068555;28;19932;-67
2022/10/30 04:18:54;;;;;;;;;;;12.20;99.90;;;;;;5074717;28;19928;-67
2022/10/30 04:21:19;;;;;;;;;;;12.30;99.90;;;;;;5064155;28;21665;-67
2022/10/30 04:23:45;;;;;;;;;;;12.30;99.90;;;;;;5068920;28;20359;-68
2022/10/30 04:26:10;;;;;;;;;;;12.20;99.90;;;;;;5073248;28;19982;-67
2022/10/30 04:28:36;;;;;;;;;;;12.20;99.90;;;;;;5067277;28;19921;-67
2022/10/30 04:31:01;;;;;;;;;;;12.20;99.90;;;;;;5068759;28;19921;-67
2022/10/30 04:33:27;;;;;;;;;;;12.20;99.90;;;;;;5071298;28;19981;-67
2022/10/30 04:35:53;;;;;;;;;;;12.20;99.90;;;;;;5072589;28;19951;-67
2022/10/30 04:38:19;;;;;;;;;;;12.10;99.90;;;;;;5063526;28;19924;-67
2022/10/30 04:40:44;;;;;;;;;;;12.10;99.90;;;;;;5095468;28;20394;-67
2022/10/30 04:43:11;;;;;;;;;;;12.20;99.90;;;;;;5067157;28;19924;-67
2022/10/30 04:45:36;;;;;;;;;;;12.20;99.90;;;;;;5064054;28;19928;-67
2022/10/30 04:48:03;;;;;;;;;;;12.10;99.90;;;;;;5071006;28;19990;-67
2022/10/30 04:50:29;;;;;;;;;;;12.20;99.90;;;;;;5076542;28;19920;-67
2022/10/30 04:53:02;;;;;;;;;;;12.10;99.90;;;;;;5058966;28;19921;-67
2022/10/30 04:55:28;;;;;;;;;;;12.20;99.90;;;;;;5068737;28;20358;-68
2022/10/30 04:57:54;;;;;;;;;;;12.20;99.90;;;;;;5075223;28;20006;-67
2022/10/30 05:00:20;;;;;;;;;;;12.20;99.90;;;;;;5069805;28;20015;-67
2022/10/30 05:02:45;;;;;;;;;;;12.10;99.90;;;;;;5064477;28;19920;-67
2022/10/30 05:05:11;;;;;;;;;;;12.10;99.90;;;;;;5077475;28;19939;-68
2022/10/30 05:07:36;;;;;;;;;;;12.10;99.90;;;;;;5065957;28;19928;-67
2022/10/30 05:10:02;;;;;;;;;;;12.10;99.90;;;;;;5070280;28;19934;-67
2022/10/30 05:12:27;;;;;;;;;;;12.10;99.90;;;;;;5064990;28;19921;-67
2022/10/30 05:14:53;;;;;;;;;;;12.00;99.90;;;;;;5072017;28;20302;-68
2022/10/30 05:17:18;;;;;;;;;;;12.00;99.90;;;;;;5071715;28;19954;-68
2022/10/30 05:19:44;;;;;;;;;;;12.00;99.90;;;;;;5071886;28;19924;-67
2022/10/30 05:22:09;;;;;;;;;;;12.00;99.90;;;;;;5073298;28;19928;-67
2022/10/30 05:24:35;;;;;;;;;;;12.00;99.90;;;;;;5081506;28;20397;-67
2022/10/30 05:27:00;;;;;;;;;;;11.90;99.90;;;;;;5069037;28;19963;-67
2022/10/30 05:29:25;;;;;;;;;;;12.00;99.90;;;;;;5077864;28;19942;-67
2022/10/30 05:31:51;;;;;;;;;;;11.90;99.90;;;;;;5066844;28;19937;-67
2022/10/30 05:34:16;;;;;;;;;;;11.90;99.90;;;;;;5051043;28;19924;-67
2022/10/30 05:36:42;;;;;;;;;;;11.80;99.90;;;;;;5072721;28;19921;-67
2022/10/30 05:39:07;;;;;;;;;;;11.90;99.90;;;;;;5057231;28;20007;-67
2022/10/30 05:41:33;;;;;;;;;;;11.90;99.90;;;;;;5074485;28;20321;-67
2022/10/30 05:43:58;;;;;;;;;;;11.80;99.90;;;;;;5075413;28;19931;-67
2022/10/30 05:46:24;;;;;;;;;;;11.80;99.90;;;;;;5104960;27;19950;-67
2022/10/30 05:48:49;;;;;;;;;;;11.80;99.90;;;;;;5071319;28;20441;-67
2022/10/30 05:51:15;;;;;;;;;;;11.80;99.90;;;;;;5069021;28;19977;-67
2022/10/30 05:53:40;;;;;;;;;;;11.80;99.90;;;;;;5074911;28;19978;-68
2022/10/30 05:56:06;;;;;;;;;;;11.80;99.90;;;;;;5077456;28;19925;-68
2022/10/30 05:58:31;;;;;;;;;;;11.70;99.90;;;;;;5103465;27;19974;-67
2022/10/30 06:00:57;;;;;;;;;;;11.70;99.90;;;;;;5099294;27;19924;-67
2022/10/30 06:03:22;;;;;;;;;;;11.70;99.90;;;;;;5068583;28;19998;-68
2022/10/30 06:05:48;;;;;;;;;;;11.70;99.90;;;;;;5070478;28;20360;-67
2022/10/30 06:08:15;;;;;;;;;;;11.60;99.90;;;;;;5068701;28;19928;-67
2022/10/30 06:10:40;;;;;;;;;;;11.70;99.90;;;;;;5061691;28;19924;-67
2022/10/30 06:13:06;;;;;;;;;;;11.70;99.90;;;;;;5066117;28;20422;-67
2022/10/30 06:15:32;;;;;;;;;;;11.70;99.90;;;;;;5069375;28;19927;-67
2022/10/30 06:17:58;;;;;;;;;;;11.70;99.90;;;;;;5058744;28;19931;-68
2022/10/30 06:20:27;;;;;;;;;;;11.60;99.90;;;;;;5061089;28;19924;-67
2022/10/30 06:22:53;;;;;;;;;;;11.70;99.90;;;;;;5060477;28;19924;-68
2022/10/30 06:25:19;;;;;;;;;;;11.60;99.90;;;;;;5072120;28;19932;-67
2022/10/30 06:27:44;;;;;;;;;;;11.70;99.90;;;;;;5068956;28;19928;-67
2022/10/30 06:30:10;;;;;;;;;;;11.60;99.90;;;;;;5070354;28;19920;-67
2022/10/30 06:32:35;;;;;;;;;;;11.60;99.90;;;;;;5064642;28;19963;-68
2022/10/30 06:35:01;;;;;;;;;;;11.60;99.90;;;;;;5076735;28;19920;-68
2022/10/30 06:37:27;;;;;;;;;;;11.50;99.90;;;;;;5077948;28;19929;-67
2022/10/30 06:39:53;;;;;;;;;;;11.50;99.90;;;;;;5071525;28;19930;-68
2022/10/30 06:42:18;;;;;;;;;;;11.50;99.90;;;;;;5070542;28;19924;-68
2022/10/30 06:44:44;;;;;;;;;;;11.50;99.90;;;;;;5072502;28;20394;-67
2022/10/30 06:47:09;;;;;;;;;;;11.50;99.90;;;;;;5064341;28;19921;-68
2022/10/30 06:49:35;;;;;;;;;;;11.50;99.90;;;;;;5074662;28;20023;-68
2022/10/30 06:52:00;;;;;;;;;;;11.50;99.90;;;;;;5067711;28;19985;-68
2022/10/30 06:54:26;;;;;;;;;;;11.50;99.90;;;;;;5080829;28;20175;-67
2022/10/30 06:56:51;;;;;;;;;;;11.50;99.90;;;;;;5063672;28;20403;-67
2022/10/30 06:59:17;;;;;;;;;;;11.50;99.90;;;;;;5074265;28;19931;-67
2022/10/30 07:01:42;;;;;;;;;;;11.50;99.90;;;;;;5057450;28;19924;-67
2022/10/30 07:04:08;;;;;;;;;;;11.50;99.90;;;;;;5075153;28;19928;-68
2022/10/30 07:06:33;;;;;;;;;;;11.50;99.90;;;;;;5069702;28;19928;-67
2022/10/30 07:08:59;;;;;;;;;;;11.40;99.90;;;;;;5070112;28;20402;-67
2022/10/30 07:11:24;;;;;;;;;;;11.50;99.90;;;;;;5101490;27;19920;-67
2022/10/30 07:13:50;;;;;;;;;;;11.50;99.90;;;;;;5071412;28;19973;-67
2022/10/30 07:16:15;;;;;;;;;;;11.50;99.90;;;;;;5068728;28;19960;-67
2022/10/30 07:18:41;;;;;;;;;;;11.60;99.90;;;;;;5066490;28;20367;-67
2022/10/30 07:21:06;;;;;;;;;;;11.60;99.90;;;;;;5077219;28;19924;-67
2022/10/30 07:23:31;;;;;;;;;;;11.60;99.90;;;;;;5074211;28;19926;-67
2022/10/30 07:25:58;;;;;;;;;;;11.60;99.90;;;;;;5050116;28;19927;-67
2022/10/30 07:28:23;;;;;;;;;;;11.60;99.90;;;;;;5070326;28;19930;-68
2022/10/30 07:30:49;;;;;;;;;;;11.70;99.90;;;;;;5063211;28;19948;-67
2022/10/30 07:33:14;;;;;;;;;;;11.60;99.90;;;;;;5072043;28;20014;-68
2022/10/30 07:35:39;;;;;;;;;;;11.70;99.90;;;;;;5073760;28;20023;-67
2022/10/30 07:38:06;;;;;;;;;;;11.70;99.90;;;;;;5085261;28;19935;-68
2022/10/30 07:40:32;;;;;;;;;;;11.70;99.90;;;;;;5075510;28;19971;-68
2022/10/30 07:42:58;;;;;;;;;;;11.80;99.90;;;;;;5064929;28;19994;-68
2022/10/30 07:45:24;;;;;;;;;;;11.90;99.90;;;;;;5074556;28;20294;-67
2022/10/30 07:47:50;;;;;;;;;;;11.80;99.90;;;;;;5074704;28;19924;-68
2022/10/30 07:50:15;;;;;;;;;;;11.90;99.90;;;;;;5072173;28;19931;-68
2022/10/30 07:52:41;;;;;;;;;;;12.00;99.90;;;;;;5068147;28;19974;-68
2022/10/30 07:55:07;;;;;;;;;;;12.00;99.90;;;;;;5066305;28;19921;-68
2022/10/30 07:57:36;;;;;;;;;;;12.00;99.90;;;;;;5065590;28;20658;-68
2022/10/30 08:00:06;;;;;;;;;;;12.10;99.90;;;;;;5050941;28;19924;-68
2022/10/30 08:02:31;;;;;;;;;;;12.20;99.90;;;;;;5066857;28;19969;-68
2022/10/30 08:04:57;;;;;;;;;;;12.30;99.90;;;;;;5071997;28;19920;-68
2022/10/30 08:07:22;;;;;;;;;;;12.30;99.90;;;;;;5068031;28;20314;-68
2022/10/30 08:09:48;;;;;;;;;;;12.30;99.90;;;;;;5088007;28;19936;-67
2022/10/30 08:12:14;;;;;;;;;;;12.40;99.90;;;;;;5098259;28;19928;-68
2022/10/30 08:14:39;;;;;;;;;;;12.40;99.90;;;;;;5062346;28;20413;-68
2022/10/30 08:17:06;;;;;;;;;;;12.50;99.90;;;;;;5099563;28;20026;-67
2022/10/30 08:19:32;;;;;;;;;;;12.60;99.90;;;;;;5061965;28;20229;-67
2022/10/30 08:21:58;;;;;;;;;;;12.70;99.90;;;;;;5099584;28;20378;-67
2022/10/30 08:24:24;;;;;;;;;;;12.80;99.90;;;;;;5069249;28;19924;-68
2022/10/30 08:26:52;;;;;;;;;;;12.90;99.90;;;;;;5070405;28;19981;-67
2022/10/30 08:29:18;;;;;;;;;;;12.90;99.90;;;;;;5069769;28;21541;-67
2022/10/30 08:31:43;;;;;;;;;;;12.90;99.90;;;;;;5056269;28;19924;-68
2022/10/30 08:34:09;;;;;;;;;;;13.00;99.90;;;;;;5073365;28;19927;-68
2022/10/30 08:36:34;;;;;;;;;;;13.00;99.90;;;;;;5065740;28;19920;-68
2022/10/30 08:39:02;;;;;;;;;;;13.20;99.90;;;;;;5061918;28;19933;-68
2022/10/30 08:41:28;;;;;;;;;;;13.20;99.90;;;;;;5065745;28;20440;-68
2022/10/30 08:43:54;;;;;;;;;;;13.30;99.90;;;;;;5063603;28;19928;-68
2022/10/30 08:46:19;;;;;;;;;;;13.40;99.90;;;;;;5065453;28;19920;-68
2022/10/30 08:48:45;;;;;;;;;;;13.50;99.90;;;;;;5065685;28;20306;-68
2022/10/30 08:51:10;;;;;;;;;;;13.50;99.90;;;;;;5068086;28;19920;-68
2022/10/30 08:53:36;;;;;;;;;;;13.60;99.90;;;;;;5065840;28;19935;-68
2022/10/30 08:56:01;;;;;;;;;;;13.60;99.90;;;;;;5063056;28;19925;-68
2022/10/30 08:58:27;;;;;;;;;;;13.70;99.90;;;;;;5063768;28;20409;-68
2022/10/30 09:00:52;;;;;;;;;;;13.80;99.90;;;;;;5072764;28;19920;-68
2022/10/30 09:03:17;;;;;;;;;;;13.90;99.90;;;;;;5070958;28;19967;-68
2022/10/30 09:05:43;;;;;;;;;;;14.00;99.90;;;;;;5069382;28;19989;-68
2022/10/30 09:08:08;;;;;;;;;;;14.00;99.90;;;;;;5072961;28;19963;-68
2022/10/30 09:10:34;;;;;;;;;;;14.20;99.90;;;;;;5069927;28;20005;-68
2022/10/30 09:13:01;;;;;;;;;;;14.20;99.90;;;;;;5070247;28;19977;-68
2022/10/30 09:15:26;;;;;;;;;;;14.20;99.90;;;;;;5064867;28;20007;-68
2022/10/30 09:18:02;;;;;;;;;;;14.30;99.90;;;;;;5062885;28;19935;-68
2022/10/30 09:20:28;;;;;;;;;;;14.50;99.90;;;;;;5049495;28;19921;-68
2022/10/30 09:22:54;;;;;;;;;;;14.60;99.90;;;;;;5071742;28;19939;-68
2022/10/30 09:25:19;;;;;;;;;;;14.70;99.90;;;;;;5064784;28;19925;-68
2022/10/30 09:27:45;;;;;;;;;;;14.80;99.90;;;;;;5077642;28;19927;-68
2022/10/30 09:30:11;;;;;;;;;;;15.00;99.90;;;;;;5072147;28;20375;-68
2022/10/30 09:32:37;;;;;;;;;;;15.00;99.90;;;;;;5074256;28;19932;-68
2022/10/30 09:35:02;;;;;;;;;;;15.20;99.90;;;;;;5058861;28;20499;-68
2022/10/30 09:37:28;;;;;;;;;;;15.20;99.90;;;;;;5055331;28;19930;-68
2022/10/30 09:39:54;;;;;;;;;;;15.30;99.90;;;;;;5069811;28;19999;-68
2022/10/30 09:42:22;;;;;;;;;;;15.50;99.90;;;;;;5069692;28;20065;-68
2022/10/30 09:44:58;;;;;;;;;;;15.50;99.90;;;;;;5061062;28;19928;-68
2022/10/30 09:47:33;;;;;;;;;;;15.60;99.90;;;;;;5065672;28;20526;-69
2022/10/30 09:50:24;;;;;;;;;;;15.70;99.90;;;;;;5099840;27;19920;-68
2022/10/30 09:53:02;;;;;;;;;;;15.80;99.90;;;;;;5044104;28;20354;-68
2022/10/30 09:55:40;;;;;;;;;;;15.90;99.90;;;;;;5052533;28;19932;-68
2022/10/30 09:58:14;;;;;;;;;;;16.00;99.90;;;;;;5066905;28;19924;-68
2022/10/30 10:00:47;;;;;;;;;;;16.20;99.90;;;;;;5068714;28;19969;-68
2022/10/30 10:03:16;;;;;;;;;;;16.30;99.90;;;;;;5074276;28;19920;-68
2022/10/30 10:05:43;;;;;;;;;;;16.40;99.90;;;;;;5068932;28;19928;-68
2022/10/30 10:08:12;;;;;;;;;;;16.40;99.90;;;;;;5084554;28;20330;-69
2022/10/30 10:10:43;;;;;;;;;;;16.60;99.90;;;;;;5068563;28;19935;-68
2022/10/30 10:13:25;;;;;;;;;;;16.80;99.90;;;;;;5073358;28;19959;-68
2022/10/30 10:15:53;;;;;;;;;;;16.80;99.90;;;;;;5098600;27;19925;-68
2022/10/30 10:18:24;;;;;;;;;;;17.00;99.90;;;;;;5103659;27;19932;-69
2022/10/30 10:20:51;;;;;;;;;;;17.20;99.90;;;;;;5067425;28;19997;-68
2022/10/30 10:23:32;;;;;;;;;;;17.20;99.90;;;;;;5066124;28;19930;-68
2022/10/30 10:26:03;;;;;;;;;;;17.20;99.90;;;;;;5064696;28;19925;-68
2022/10/30 10:28:41;;;;;;;;;;;17.40;99.90;;;;;;5069080;28;19943;-68
2022/10/30 10:31:12;;;;;;;;;;;17.50;99.90;;;;;;5064363;28;19925;-69
2022/10/30 10:33:50;;;;;;;;;;;17.60;99.90;;;;;;5078761;28;19924;-68
2022/10/30 10:36:23;;;;;;;;;;;17.60;99.90;;;;;;5073513;28;19967;-68
2022/10/30 10:38:51;;;;;;;;;;;17.70;99.90;;;;;;5069875;28;20417;-68
2022/10/30 10:41:21;;;;;;;;;;;17.70;99.90;;;;;;5088765;28;19924;-68
2022/10/30 10:43:59;;;;;;;;;;;17.80;99.90;;;;;;5057626;28;19928;-68
2022/10/30 10:46:27;;;;;;;;;;;17.80;99.90;;;;;;5060729;28;20365;-68
2022/10/30 10:49:11;;;;;;;;;;;17.90;99.90;;;;;;5067128;28;19920;-69
2022/10/30 10:51:48;;;;;;;;;;;17.90;99.90;;;;;;5061436;28;19929;-68
2022/10/30 10:54:20;;;;;;;;;;;17.90;99.90;;;;;;5065960;28;19921;-69
2022/10/30 10:56:46;;;;;;;;;;;18.10;99.90;;;;;;5066612;28;20457;-68
2022/10/30 10:59:14;;;;;;;;;;;18.10;99.90;;;;;;5069297;28;20049;-69
2022/10/30 11:01:43;;;;;;;;;;;18.10;99.90;;;;;;5065243;28;19959;-68
2022/10/30 11:04:08;;;;;;;;;;;18.10;99.90;;;;;;5099944;27;20479;-68
2022/10/30 11:06:36;;;;;;;;;;;18.20;99.90;;;;;;5065506;28;20312;-68
2022/10/30 11:09:11;;;;;;;;;;;18.30;99.90;;;;;;5065884;28;19921;-68
2022/10/30 11:11:37;;;;;;;;;;;18.20;99.90;;;;;;5061805;28;19920;-68
2022/10/30 11:14:07;;;;;;;;;;;18.30;99.90;;;;;;5072542;28;19945;-70
2022/10/30 11:16:37;;;;;;;;;;;18.30;99.90;;;;;;5068706;28;19965;-71
2022/10/30 11:19:05;;;;;;;;;;;18.40;99.90;;;;;;5085153;28;19931;-70
2022/10/30 11:21:33;;;;;;;;;;;18.30;99.90;;;;;;5060986;28;20011;-67
2022/10/30 11:23:59;;;;;;;;;;;18.30;99.90;;;;;;5061658;28;19954;-71
2022/10/30 11:26:26;;;;;;;;;;;18.40;99.90;;;;;;5063675;28;19921;-70
2022/10/30 11:28:52;;;;;;;;;;;18.40;99.90;;;;;;5069475;28;19927;-70
2022/10/30 11:31:21;;;;;;;;;;;18.50;99.90;;;;;;5066582;28;19924;-70
2022/10/30 11:33:47;;;;;;;;;;;18.60;99.90;;;;;;5068423;28;20092;-70
2022/10/30 11:36:17;;;;;;;;;;;18.60;99.90;;;;;;5060615;28;20398;-69
2022/10/30 11:38:43;;;;;;;;;;;18.80;99.90;;;;;;5085395;28;19932;-70
2022/10/30 11:41:11;;;;;;;;;;;18.80;99.90;;;;;;5088903;28;19925;-71
2022/10/30 11:43:38;;;;;;;;;;;18.80;99.90;;;;;;5073252;28;19928;-71
2022/10/30 11:46:08;;;;;;;;;;;18.80;99.90;;;;;;5063714;28;19928;-71
2022/10/30 11:48:35;;;;;;;;;;;18.80;99.90;;;;;;5070096;28;19927;-71
2022/10/30 11:51:01;;;;;;;;;;;18.80;99.90;;;;;;5058554;28;19999;-70
2022/10/30 11:53:31;;;;;;;;;;;18.70;99.90;;;;;;5070441;28;19960;-71
2022/10/30 11:55:57;;;;;;;;;;;18.70;99.90;;;;;;5064328;28;19921;-72
2022/10/30 11:58:34;;;;;;;;;;;18.70;99.90;;;;;;5058740;28;19994;-71
2022/10/30 12:01:05;;;;;;;;;;;18.70;99.90;;;;;;5065193;28;19920;-71
2022/10/30 12:03:35;;;;;;;;;;;18.80;99.90;;;;;;5067777;28;19921;-71
2022/10/30 12:06:16;;;;;;;;;;;18.80;99.90;;;;;;5065144;28;19928;-71
2022/10/30 12:08:56;;;;;;;;;;;18.80;99.90;;;;;;5067609;28;20433;-71
2022/10/30 12:11:26;;;;;;;;;;;18.80;99.90;;;;;;5061521;28;19929;-71
2022/10/30 12:13:53;;;;;;;;;;;18.90;99.90;;;;;;5090688;28;19921;-71
2022/10/30 12:16:18;;;;;;;;;;;18.90;99.90;;;;;;5049053;28;20382;-70
2022/10/30 12:18:53;;;;;;;;;;;18.80;99.90;;;;;;5087929;28;19924;-71
2022/10/30 12:21:19;;;;;;;;;;;18.80;99.90;;;;;;5064964;28;19962;-71
2022/10/30 12:23:49;;;;;;;;;;;18.90;99.90;;;;;;5066324;28;19943;-71
2022/10/30 12:26:15;;;;;;;;;;;19.00;99.90;;;;;;5047999;28;19925;-71
2022/10/30 12:28:50;;;;;;;;;;;19.00;99.90;;;;;;5055441;28;19934;-71
2022/10/30 12:31:18;;;;;;;;;;;19.10;99.90;;;;;;5061331;28;19931;-71
2022/10/30 12:33:51;;;;;;;;;;;19.20;99.90;;;;;;5070994;28;19927;-71
2022/10/30 12:36:21;;;;;;;;;;;19.30;99.90;;;;;;5059148;28;19928;-71
2022/10/30 12:38:52;;;;;;;;;;;19.40;99.90;;;;;;5060548;28;19928;-71
2022/10/30 12:41:26;;;;;;;;;;;19.40;99.90;;;;;;5056946;28;19967;-71
2022/10/30 12:43:54;;;;;;;;;;;19.40;99.90;;;;;;5070312;28;19927;-71
2022/10/30 12:46:20;;;;;;;;;;;19.60;99.90;;;;;;5062488;28;20332;-71
2022/10/30 12:48:54;;;;;;;;;;;19.60;99.90;;;;;;5100649;28;20022;-71
2022/10/30 12:51:22;;;;;;;;;;;19.60;99.90;;;;;;5066473;28;19951;-71
2022/10/30 12:53:53;;;;;;;;;;;19.60;99.90;;;;;;5087465;28;19924;-71
2022/10/30 12:56:21;;;;;;;;;;;19.70;99.90;;;;;;5067756;28;21593;-71
2022/10/30 12:58:52;;;;;;;;;;;19.60;99.90;;;;;;5084978;28;19942;-71
2022/10/30 13:01:23;;;;;;;;;;;19.70;99.90;;;;;;5051655;28;19925;-71
2022/10/30 13:03:51;;;;;;;;;;;19.80;99.90;;;;;;5085813;28;19925;-71
2022/10/30 13:06:27;;;;;;;;;;;19.90;99.90;;;;;;5065669;28;19933;-70
2022/10/30 13:09:07;;;;;;;;;;;19.90;99.90;;;;;;5069673;28;19927;-71
2022/10/30 13:11:36;;;;;;;;;;;19.90;99.90;;;;;;5065063;28;19948;-71
2022/10/30 13:14:02;;;;;;;;;;;19.90;99.90;;;;;;5071282;28;20364;-71
2022/10/30 13:16:28;;;;;;;;;;;19.90;99.90;;;;;;5065565;28;19928;-71
2022/10/30 13:19:01;;;;;;;;;;;19.90;99.90;;;;;;5070358;28;20444;-71
2022/10/30 13:21:26;;;;;;;;;;;19.80;99.90;;;;;;5067464;28;19948;-71
2022/10/30 13:24:09;;;;;;;;;;;19.70;99.90;;;;;;5071600;28;19928;-71
2022/10/30 13:26:41;;;;;;;;;;;19.70;99.90;;;;;;5067648;28;20382;-71
2022/10/30 13:29:19;;;;;;;;;;;19.60;99.90;;;;;;5063421;28;19924;-71
2022/10/30 13:32:04;;;;;;;;;;;19.60;99.90;;;;;;5064426;28;19921;-71
2022/10/30 13:34:35;;;;;;;;;;;19.50;99.90;;;;;;5083916;28;20185;-71
2022/10/30 13:37:11;;;;;;;;;;;19.50;99.90;;;;;;5065041;28;19932;-70
2022/10/30 13:39:42;;;;;;;;;;;19.50;99.90;;;;;;5057669;28;19921;-71
2022/10/30 13:42:07;;;;;;;;;;;19.50;99.90;;;;;;5063723;28;20416;-71
2022/10/30 13:44:42;;;;;;;;;;;19.50;99.90;;;;;;5069800;28;20011;-70
2022/10/30 13:47:13;;;;;;;;;;;19.40;99.90;;;;;;5067218;28;19920;-71
2022/10/30 13:49:57;;;;;;;;;;;19.40;99.90;;;;;;5067403;28;20490;-71
2022/10/30 13:52:24;;;;;;;;;;;19.40;99.90;;;;;;5053945;28;19924;-71
2022/10/30 13:54:59;;;;;;;;;;;19.40;99.90;;;;;;5068214;28;20301;-71
2022/10/30 13:57:24;;;;;;;;;;;19.30;99.90;;;;;;5065092;28;19928;-70
2022/10/30 14:00:06;;;;;;;;;;;19.30;99.90;;;;;;5066837;28;19929;-70
2022/10/30 14:02:50;;;;;;;;;;;19.30;99.90;;;;;;5072906;28;19924;-70
2022/10/30 14:05:28;;;;;;;;;;;19.30;99.90;;;;;;5057094;28;19982;-70
2022/10/30 14:07:56;;;;;;;;;;;19.30;99.90;;;;;;5065811;28;19920;-71
2022/10/30 14:10:31;;;;;;;;;;;19.20;99.90;;;;;;5066753;28;20388;-70
2022/10/30 14:12:56;;;;;;;;;;;19.30;99.90;;;;;;5073054;28;19935;-70
2022/10/30 14:15:42;;;;;;;;;;;19.20;99.90;;;;;;5082127;28;19920;-70
2022/10/30 14:18:10;;;;;;;;;;;19.20;99.90;;;;;;5065531;28;20274;-70
2022/10/30 14:20:36;;;;;;;;;;;19.10;99.90;;;;;;5068392;28;19928;-70